createdAt,value
2022-11-28T14:52:40.949Z,101134.09
2022-11-28T14:55:10.579Z,101127.41
2022-11-28T14:57:53.588Z,101134.09
2022-11-28T15:08:57.701Z,101109.56
2022-11-28T15:11:37.204Z,101117.53
2022-11-28T15:14:21.464Z,101117.25
2022-11-28T15:16:50.915Z,101124.34
2022-11-28T15:19:32.882Z,101128.13
2022-11-28T15:22:01.353Z,101129.28
2022-11-28T15:24:33.860Z,101127.44
2022-11-28T15:27:10.322Z,101134.13
2022-11-28T15:29:38.417Z,101147.72
2022-11-28T15:32:06.333Z,101144.50
2022-11-28T15:34:35.851Z,101135.94
2022-11-28T15:37:14.812Z,101133.97
2022-11-28T15:39:42.855Z,101161.13
2022-11-28T15:42:21.542Z,101150.81
2022-11-28T15:44:56.504Z,101163.00
2022-11-28T15:47:24.153Z,101162.44
2022-11-28T15:50:10.145Z,101163.94
2022-11-28T15:52:38.114Z,101158.03
2022-11-28T15:55:16.185Z,101155.00
2022-11-28T15:57:43.506Z,101189.19
2022-11-28T16:00:18.963Z,101188.72
2022-11-28T16:02:47.446Z,101193.22
2022-11-28T16:05:21.133Z,101179.44
2022-11-28T16:07:51.243Z,101190.22
2022-11-28T16:10:25.357Z,101198.78
2022-11-28T16:13:00.343Z,101201.91
2022-11-28T16:15:28.668Z,101199.84
2022-11-28T16:17:56.346Z,101192.28
2022-11-28T16:20:26.356Z,101199.25
2022-11-28T16:22:59.902Z,101208.72
2022-11-28T16:25:31.173Z,101206.03
2022-11-28T16:27:59.734Z,101205.34
2022-11-28T16:30:41.720Z,101213.22
2022-11-28T16:33:38.301Z,101215.44
2022-11-28T16:36:11.178Z,101191.75
2022-11-28T16:38:39.210Z,101207.59
2022-11-28T16:41:06.252Z,101186.09
2022-11-28T16:43:39.456Z,101210.09
2022-11-28T16:46:23.059Z,101206.34
2022-11-28T16:48:56.066Z,101206.97
2022-11-28T16:51:26.470Z,101215.97
2022-11-28T16:53:59.851Z,101212.53
2022-11-28T16:56:44.180Z,101194.03
2022-11-28T16:59:17.672Z,101215.69
2022-11-28T17:01:53.185Z,101215.56
2022-11-28T17:04:28.651Z,101225.06
2022-11-28T17:06:58.650Z,101216.22
2022-11-28T17:09:26.013Z,101218.06
2022-11-28T17:12:08.633Z,101220.38
2022-11-28T17:14:37.715Z,101238.31
2022-11-28T17:17:15.024Z,101232.25
2022-11-28T17:19:42.714Z,101220.88
2022-11-28T17:22:25.342Z,101240.31
2022-11-28T17:24:57.528Z,101230.25
2022-11-28T17:27:24.722Z,101240.78
2022-11-28T17:29:53.492Z,101233.03
2022-11-28T17:32:22.984Z,101236.47
2022-11-28T17:34:51.193Z,101235.38
2022-11-28T17:37:18.911Z,101242.41
2022-11-28T17:40:05.212Z,101249.97
2022-11-28T17:42:32.686Z,101253.63
2022-11-28T17:45:00.033Z,101253.63
2022-11-28T17:47:27.790Z,101254.13
2022-11-28T17:49:56.121Z,101256.47
2022-11-28T17:52:28.042Z,101270.81
2022-11-28T17:55:00.855Z,101264.22
2022-11-28T17:57:33.569Z,101270.81
2022-11-28T18:00:00.933Z,101268.88
2022-11-28T18:02:28.154Z,101271.63
2022-11-28T18:04:55.723Z,101257.97
2022-11-28T18:07:23.284Z,101250.03
2022-11-28T18:09:50.192Z,101259.44
2022-11-28T18:12:18.042Z,101259.84
2022-11-28T18:14:45.430Z,101257.44
2022-11-28T18:17:13.300Z,101265.66
2022-11-28T18:19:41.537Z,101268.97
2022-11-28T18:22:09.151Z,101266.69
2022-11-28T18:24:36.554Z,101261.53
2022-11-28T18:27:03.765Z,101273.09
2022-11-28T18:29:32.199Z,101281.94
2022-11-28T18:32:00.556Z,101290.59
2022-11-28T18:34:28.230Z,101292.88
2022-11-28T18:37:01.093Z,101297.13
2022-11-28T18:39:33.522Z,101295.19
2022-11-28T18:42:01.284Z,101300.25
2022-11-28T18:44:29.241Z,101283.34
2022-11-28T18:46:56.863Z,101288.38
2022-11-28T18:49:25.750Z,101302.22
2022-11-28T18:51:55.872Z,101311.94
2022-11-28T18:54:23.163Z,101308.00
2022-11-28T18:56:50.491Z,101306.19
2022-11-28T18:59:18.115Z,101311.09
2022-11-28T19:01:45.352Z,101314.53
2022-11-28T19:04:13.933Z,101300.38
2022-11-28T19:06:41.571Z,101314.41
2022-11-28T19:09:11.392Z,101320.91
2022-11-28T19:11:40.323Z,101331.34
2022-11-28T19:14:08.472Z,101321.22
2022-11-28T19:16:37.919Z,101326.53
2022-11-28T19:19:06.259Z,101319.19
2022-11-28T19:21:36.083Z,101318.84
2022-11-28T19:24:04.566Z,101320.59
2022-11-28T19:26:34.364Z,101332.69
2022-11-28T19:29:02.769Z,101333.50
2022-11-28T19:31:32.604Z,101333.31
2022-11-28T19:34:06.975Z,101341.25
2022-11-28T19:36:39.494Z,101335.06
2022-11-28T19:39:12.085Z,101341.28
2022-11-28T19:41:39.802Z,101320.91
2022-11-28T19:44:06.924Z,101331.78
2022-11-28T19:46:35.954Z,101333.75
2022-11-28T19:49:09.613Z,101337.00
2022-11-28T19:51:36.742Z,101329.34
2022-11-28T19:54:04.323Z,101329.34
2022-11-28T19:56:33.771Z,101350.69
2022-11-28T19:59:01.653Z,101336.06
2022-11-28T20:01:29.586Z,101347.03
2022-11-28T20:03:57.951Z,101353.06
2022-11-28T20:06:27.973Z,101332.72
2022-11-28T20:08:58.412Z,101348.50
2022-11-28T20:11:28.583Z,101343.69
2022-11-28T20:13:58.483Z,101342.25
2022-11-28T20:16:26.357Z,101357.72
2022-11-28T20:18:53.942Z,101356.69
2022-11-28T20:21:21.840Z,101360.75
2022-11-28T20:23:52.432Z,101365.66
2022-11-28T20:26:24.233Z,101362.06
2022-11-28T20:28:55.334Z,101366.38
2022-11-28T20:31:30.944Z,101365.91
2022-11-28T20:33:59.031Z,101368.22
2022-11-28T20:36:27.846Z,101376.91
2022-11-28T20:38:56.136Z,101382.59
2022-11-28T20:41:25.092Z,101369.25
2022-11-28T20:43:52.882Z,101365.19
2022-11-28T20:46:29.632Z,101379.81
2022-11-28T20:48:58.414Z,101361.13
2022-11-28T20:51:27.488Z,101382.78
2022-11-28T20:53:55.713Z,101387.19
2022-11-28T20:56:25.241Z,101383.13
2022-11-28T20:58:53.195Z,101395.84
2022-11-28T21:01:23.005Z,101399.13
2022-11-28T21:03:51.185Z,101399.81
2022-11-28T21:06:19.162Z,101412.00
2022-11-28T21:08:46.984Z,101394.09
2022-11-28T21:11:43.806Z,101400.94
2022-11-28T21:14:09.133Z,101393.41
2022-11-28T21:16:36.765Z,101398.63
2022-11-28T21:19:07.807Z,101396.66
2022-11-28T21:21:37.281Z,101410.72
2022-11-28T21:24:10.645Z,101398.31
2022-11-28T21:26:42.399Z,101405.16
2022-11-28T21:29:13.515Z,101411.53
2022-11-28T21:31:43.720Z,101413.34
2022-11-28T21:34:14.636Z,101413.81
2022-11-28T21:36:42.797Z,101408.94
2022-11-28T21:39:15.059Z,101403.75
2022-11-28T21:41:42.841Z,101421.34
2022-11-28T21:44:12.601Z,101418.69
2022-11-28T21:46:40.110Z,101414.19
2022-11-28T21:49:07.402Z,101425.78
2022-11-28T21:51:39.043Z,101422.06
2022-11-28T21:54:06.768Z,101425.31
2022-11-28T21:56:34.239Z,101428.63
2022-11-28T21:59:01.971Z,101430.22
2022-11-28T22:01:29.410Z,101431.00
2022-11-28T22:04:02.448Z,101440.81
2022-11-28T22:06:31.094Z,101441.50
2022-11-28T22:09:03.258Z,101438.56
2022-11-28T22:11:34.443Z,101445.56
2022-11-28T22:14:02.024Z,101440.53
2022-11-28T22:16:29.990Z,101438.72
2022-11-28T22:18:59.990Z,101442.31
2022-11-28T22:24:14.990Z,101441.97
2022-11-28T22:26:44.421Z,101449.31
2022-11-28T22:29:12.841Z,101448.31
2022-11-28T22:31:40.706Z,101436.88
2022-11-28T22:34:09.594Z,101455.47
2022-11-28T22:36:37.119Z,101432.66
2022-11-28T22:39:04.744Z,101450.25
2022-11-28T22:41:31.947Z,101437.91
2022-11-28T22:44:01.323Z,101430.22
2022-11-28T22:46:31.803Z,101450.09
2022-11-28T22:49:03.492Z,101453.38
2022-11-28T22:51:31.232Z,101452.88
2022-11-28T22:54:00.731Z,101449.81
2022-11-28T22:56:30.832Z,101457.53
2022-11-28T22:58:59.482Z,101458.97
2022-11-28T23:01:30.681Z,101460.75
2022-11-28T23:03:58.775Z,101457.03
2022-11-28T23:06:28.616Z,101457.34
2022-11-28T23:09:00.553Z,101458.63
2022-11-28T23:11:31.153Z,101463.72
2022-11-28T23:13:59.320Z,101468.44
2022-11-28T23:16:35.429Z,101450.00
2022-11-28T23:19:06.603Z,101468.44
2022-11-28T23:21:36.272Z,101478.72
2022-11-28T23:24:05.132Z,101479.06
2022-11-28T23:26:33.682Z,101473.88
2022-11-28T23:29:04.173Z,101480.06
2022-11-28T23:31:33.208Z,101478.59
2022-11-28T23:34:01.277Z,101477.78
2022-11-28T23:36:28.921Z,101479.41
2022-11-28T23:38:59.924Z,101490.19
2022-11-28T23:41:27.762Z,101486.59
2022-11-28T23:43:55.017Z,101489.84
2022-11-28T23:46:22.855Z,101484.44
2022-11-28T23:48:50.352Z,101493.59
2022-11-28T23:51:19.303Z,101486.09
2022-11-28T23:53:46.412Z,101477.44
2022-11-28T23:56:19.892Z,101491.63
2022-11-28T23:58:47.452Z,101484.72
